EPKK

John Paul II International Kraków-Balice Airport

Kraków, Poland
METAR EPKK 210330Z 24003KT CAVOK 06/03 Q1019
Observed Flight Rules
Apr-21 @ 03:30 UTC (28 minutes ago) Visual Flight Rules
Wind Visibility Clouds
240° at 3 knots 10,000+ meters
  • Clear skies
Temperatures Readings
Current 6°C / 43°F
Dewpoint 3°C / 37°F
Humidity 81%
Altimeter 30.09" Hg
Pressure 1019 hPa
Elevation 237
METAR EPKK 210330Z 24003KT CAVOK 06/03 Q1019
Observed Flight Rules
Apr-21 @ 03:30 UTC
(28 minutes ago)
VFR
Wind Visibility
240° at 3 knots 10,000+ meters
Clouds
  • Clear skies
Temperature Dewpoint
6°C / 43°F 3°C / 37°F
Humidity Altimeter Pressure
81% 30.09" Hg 1019 hPa